This is the latest recevied weather packets stored in our database for station/object UHMM. If no packets are shown the sender has not sent any weather packets the latest 10 day(s).
| Time | Temp. | Humidity | Pressure | Rain* | Wind** | Luminosity | Snow |
|---|---|---|---|---|---|---|---|
| 1777707007 | 2.78° C | 55% | 1006 hPa | - | - | - | - |
| 1777701607 | 2.78° C | 55% | 1006 hPa | - | - | - | - |
| 1777699810 | 2.78° C | 59% | 1006 hPa | - | - | - | - |
| 1777698009 | 2.78° C | 55% | 1006 hPa | - | - | - | - |
| 1777696208 | 2.78° C | 59% | 1007 hPa | - | - | - | - |
| 1777694409 | 1.67° C | 59% | 1007 hPa | - | - | - | - |
| 1777692609 | 1.67° C | 59% | 1007 hPa | - | - | - | - |
| 1777690808 | 1.67° C | 59% | 1007 hPa | - | - | - | - |
| 1777689009 | 0.56° C | 64% | 1008 hPa | - | - | - | - |
| 1777687210 | 0° C | 74% | 1008 hPa | - | - | - | - |
| 1777685408 | 0.56° C | 64% | 1008 hPa | - | - | - | - |
| 1777683608 | 0.56° C | 64% | 1008 hPa | - | - | - | - |
| 1777681810 | 0° C | 69% | 1008 hPa | - | - | - | - |
| 1777680009 | 0.56° C | 64% | 1009 hPa | - | - | - | - |
| 1777678209 | -1.11° C | 74% | 1009 hPa | - | - | - | - |
| 1777672808 | -1.11° C | 74% | 1009 hPa | - | - | - | - |
| 1777671009 | -2.22° C | 79% | 1009 hPa | - | - | - | - |
| 1777669210 | -2.22° C | 79% | 1009 hPa | - | - | - | - |
| 1777667410 | -2.22° C | 79% | 1009 hPa | - | - | - | - |
| 1777665608 | -2.22° C | 86% | 1009 hPa | - | - | - | - |
| 1777662008 | -2.22° C | 86% | 1009 hPa | - | - | - | - |
| 1777660209 | -2.22° C | 86% | 1009 hPa | - | - | - | - |
| 1777656609 | -2.22° C | 86% | 1009 hPa | - | - | - | - |
| 1777654809 | -2.22° C | 86% | 1010 hPa | - | - | - | - |
| 1777653021 | -2.22° C | 86% | 1010 hPa | - | - | - | - |
* Rain since midnight (hover to see other rain measurements)
** Current wind speed in m/s (hover to see current wind gust speed)